Hesperia, CA (92340)

09:50 PDT le 24 octobre 2014 (GMT -0700)
High Desert Mesa | Change Station
CLOSE
Current Station
Stations météorologiques personnelles
Location: Hesperia, CA
Altitude: 3251 ft
Stations météo à proximité

Alt. 3251 ft 34.39 °N, 117.29 °W | Updated 3 seconds ago

Ciel dégagé
Ciel dégagé
81.0 ° F
Paraît 79 ° F
N
0.9
Vent Variable Vent de SSO
Gusts 2.5 mph

Aujourd'hui
Haut(e) -- | Bas -- ° F
--% Risque de précip.
Hier
Haut(e) -- | Bas -- ° F
Precip. -- pouce
7:02 AM 6:03 PM
Nouvelle lune, 1% visible
Pression 30.11 pouce
Visibilité 10.0 Miles terrestres
Nuages Ciel dégagé
indice de chaleur 79 ° F
Point de rosée 27 ° F
Humidité 14%
Précipitations 0.00 pouce
Profondeur de la couche neigeuse Non disponible.
UV 3 sur 12
Pollen 4.10 sur 12
Ozone Bon
Flu Activity Sporadic
METAR KVCV 241635Z AUTO 00000KT 10SM CLR 22/M03 A3011 RMK AO2

More Conditions Fewer Conditions

Pression 30.11 pouce
Visibilité 10.0 Miles terrestres
Nuages Ciel dégagé
indice de chaleur 79 ° F
Point de rosée 27 ° F
Humidité 14%
Précipitations 0.00 pouce
Profondeur de la couche neigeuse Non disponible.
UV 3 sur 12
Pollen 4.10 sur 12
Ozone Bon
Flu Activity Sporadic
METAR KVCV 241635Z AUTO 00000KT 10SM CLR 22/M03 A3011 RMK AO2

More Conditions Fewer Conditions

10-Day Weather Forecast

Almanac

Astronomie

Oct. 24, 2014 Lever Coucher
Temps réel 07:02 PDT 18:03 PDT
Crépuscule civil 06:36 PDT 18:29 PDT
Crépuscule nautique 06:07 PDT 18:58 PDT
Crépuscule astronomique 05:37 PDT 19:28 PDT
Lune 07:44 PDT 18:49 PDT
Durée de lumière visible 11h 52m
Longueur du jour
11h 01m
Tomorrow will be 1m 59s shorter.
Nouvelle lune, 1% of the Moon is Illuminated
Aujourd'hui
Nouvelle lune
Oct 30
Premier quartier
Nov 6
Pleine lune
Nov 14
Dernier quartier
Nov 22
Nouveau

Extrêmes aujourd'hui

State Highs State Lows

Community

WunderPhotos

Upload Photos

1,764,609 Photos téléchargées !

WunderBlogs® & News

By Dr. Jeff Masters
Director of Meteorology, Weather Underground
By Kari Strenfel
Meteorologist, Weather Underground
By Christopher C. Burt
Weather Historian, Weather Underground
October 24, 2014
October 24, 2014
October 24, 2014

Nearby

Qualité de l'air

  Qualité de l'air Indice de la qualité de l'air Polluant
Hier Bon
OZONE
Hier Bon
PM10
Actuel Bon
OZONE
vendredi Bon
PM10
vendredi Bon
OZONE
vendredi Bon
CO
vendredi Bon
NO2

Épaisseur de neige

Station Depth Altitude
Virginia Lakes Ridge 0 in 9200 ft
Leavitt Lake 1 in 9400 ft
Leavitt Meadows 1 in 7200 ft
Sonora Pass 0 in 8800 ft
Summit Meadow 1 in 9122 ft

Activité sismique

Ville Distance Mag. Time & Date
Brea, California 49 Miles terrestres 2.9 15:35 PDT
2014-10-23
Brea, California 48 Miles terrestres 2.8 15:34 PDT
2014-10-23
Corona, California 43 Miles terrestres 2.5 13:09 PDT
2014-10-23
Minimum magnitude displayed is 2.5.

Températures des eaux côtières

Lieu Température
Aucun rapport de station

Stations météo à proximité